Autonomia — CUXX — position and weather

sailwx.info

Track history (hours):
 
Tides and Currents Weather Stations Pressure Air Temp Water Temp Dewpoint Dewpoint Depression Visibility Wind Speed Wind Dir Waves Ship Positions

Autonomia

Last reported at 2014-Jul-17 12:33 UTC. Time now 2014-Jul-23 11:24 UTC.
Position N 32°17' W 016°33'.

Length 27 m.

MMSI: 255500118.

Date/timePositionNaut miles runAvg speedWind from/ knotsBaromVisibWave heightAir tempDewpointWater temp
2014-Jul-17 12:33N 32°17' W 016°33'8 8.3
2014-Jul-17 11:33N 32°21' W 016°41'9 8.5
2014-Jul-17 10:33N 32°25' W 016°51'13 8.6
2014-Jul-17 09:03N 32°32' W 017°03'5 9.4
2014-Jul-17 08:34N 32°35' W 017°07'9 8.6
2014-Jul-17 07:33N 32°41' W 017°15'0 0.4
2014-Jul-17 06:32N 32°41' W 017°14'2 2.1
2014-Jul-17 05:33N 32°43' W 017°13'1 0.1
2014-Jul-16 20:05N 32°43' W 017°14'1 1.7
2014-Jul-16 19:33N 32°42' W 017°14'1 1.4
2014-Jul-16 18:33N 32°41' W 017°13'1 0.9
2014-Jul-16 17:34N 32°40' W 017°13'2 1.9
2014-Jul-16 16:33N 32°39' W 017°14'3 2.6
2014-Jul-16 15:33N 32°42' W 017°15'0 0.4
2014-Jul-16 14:33N 32°42' W 017°15'  
2014-Jul-14 06:07N 32°18' W 016°36'1 1.9
2014-Jul-14 05:32N 32°19' W 016°36'12 8.6
2014-Jul-14 04:07N 32°31' W 016°32'1 1.5
2014-Jul-14 03:33N 32°32' W 016°32'0 0.0
2014-Jul-14 02:33N 32°32' W 016°32'0 0.0
2014-Jul-14 01:31N 32°32' W 016°32'0 0.0
2014-Jul-14 00:32N 32°32' W 016°32'0 0.0
2014-Jul-13 23:33N 32°32' W 016°32'0 0.1
2014-Jul-13 22:28N 32°32' W 016°32'0 0.1
2014-Jul-13 21:31N 32°32' W 016°32'0 0.0
2014-Jul-13 20:33N 32°32' W 016°32'3 3.2
2014-Jul-13 19:33N 32°29' W 016°34'6 5.7
2014-Jul-13 18:33N 32°24' W 016°37'3 3.1
2014-Jul-13 17:31N 32°21' W 016°38'2 2.5
2014-Jul-13 16:31N 32°19' W 016°39'1 1.4
2014-Jul-13 15:31N 32°18' W 016°38'1 0.4
2014-Jul-13 14:16N 32°19' W 016°37'2 3.0
2014-Jul-13 13:33N 32°21' W 016°37'4 3.1
2014-Jul-13 12:12N 32°17' W 016°36'4 5.4
2014-Jul-13 11:32N 32°20' W 016°37'5 4.8
2014-Jul-13 10:32N 32°17' W 016°33'3 3.1
2014-Jul-13 09:33N 32°17' W 016°36'1 0.2
2014-Jul-13 06:22N 32°17' W 016°36'6 1.4
2014-Jul-13 02:20N 32°22' W 016°34'7 8.1
2014-Jul-13 01:28N 32°29' W 016°33'3 3.0
2014-Jul-13 00:33N 32°32' W 016°32'0 0.0
2014-Jul-12 23:16N 32°32' W 016°32'0 0.0
2014-Jul-12 22:30N 32°32' W 016°32'3 2.6
2014-Jul-12 21:26N 32°29' W 016°32'8 8.6
2014-Jul-12 20:31N 32°22' W 016°35'5 5.3
2014-Jul-12 19:33N 32°18' W 016°40'5 4.8
2014-Jul-12 18:31N 32°13' W 016°37'2 1.5
2014-Jul-12 17:24N 32°15' W 016°37'3 2.7
2014-Jul-12 16:29N 32°17' W 016°38'2 0.6
2014-Jul-12 13:32N 32°17' W 016°36'0 0.1
2014-Jul-12 11:11N 32°17' W 016°36'3 4.1
2014-Jul-12 10:30N 32°20' W 016°37'4 3.5
2014-Jul-12 09:17N 32°15' W 016°38'5 5.7
2014-Jul-12 08:26N 32°20' W 016°36'4 3.2
2014-Jul-12 07:10N 32°17' W 016°33'1 0.9
2014-Jul-12 06:18N 32°18' W 016°33'2 2.0
2014-Jul-12 05:27N 32°19' W 016°33'7 8.2
2014-Jul-12 04:33N 32°27' W 016°33'5 5.1
2014-Jul-12 03:33N 32°32' W 016°32'0 0.0
2014-Jul-12 02:33N 32°32' W 016°32'0 0.0
2014-Jul-12 01:33N 32°32' W 016°32'0 0.0
2014-Jul-12 00:33N 32°32' W 016°32'0 0.0
2014-Jul-11 23:11N 32°32' W 016°32'0 0.2
2014-Jul-11 22:33N 32°32' W 016°32'0 0.1
2014-Jul-11 21:15N 32°32' W 016°32'1 1.7
2014-Jul-11 20:33N 32°31' W 016°32'9 8.6
2014-Jul-11 19:31N 32°22' W 016°33'2 2.0
2014-Jul-11 18:33N 32°22' W 016°35'8 8.4
2014-Jul-11 17:33N 32°30' W 016°37'13 0.6
2014-Jul-10 21:07N 32°38' W 016°50'5 9.2
2014-Jul-10 20:33N 32°38' W 016°56'10 9.5
2014-Jul-10 19:33N 32°40' W 017°07'9 9.2
2014-Jul-10 18:33N 32°44' W 017°17'329 8.6
2014-Jul-09 04:18N 35°31' W 022°59'7 8.2
2014-Jul-09 03:30N 35°33' W 023°07'10 8.6
2014-Jul-09 02:20N 35°38' W 023°18'8 8.5
2014-Jul-09 01:22N 35°41' W 023°27'7 8.3
2014-Jul-09 00:32N 35°44' W 023°35'8 8.5
2014-Jul-08 23:33N 35°49' W 023°43'10 8.7
2014-Jul-08 22:25N 35°54' W 023°54'8 9.0
2014-Jul-08 21:30N 35°58' W 024°02'9 9.2
2014-Jul-08 20:29N 36°03' W 024°12'9 9.5
2014-Jul-08 19:34N 36°08' W 024°22'10 9.5
2014-Jul-08 18:33N 36°12' W 024°32'9 8.9
2014-Jul-08 17:33N 36°16' W 024°42'  
Track history (hours):
 
Tides and Currents Weather Stations Pressure Air Temp Water Temp Dewpoint Dewpoint Depression Visibility Wind Speed Wind Dir Waves Ship Positions

Autonomia

Last reported at 2014-Jul-17 12:33 UTC. Time now 2014-Jul-23 11:24 UTC.
Position N 32°17' W 016°33'.

Length 27 m.

MMSI: 255500118.

Date/timePositionNaut miles runAvg speedWind from/ knotsBaromVisibWave heightAir tempDewpointWater temp
2014-Jul-17 12:33N 32°17' W 016°33'8 8.3
2014-Jul-17 11:33N 32°21' W 016°41'9 8.5
2014-Jul-17 10:33N 32°25' W 016°51'13 8.6
2014-Jul-17 09:03N 32°32' W 017°03'5 9.4
2014-Jul-17 08:34N 32°35' W 017°07'9 8.6
2014-Jul-17 07:33N 32°41' W 017°15'0 0.4
2014-Jul-17 06:32N 32°41' W 017°14'2 2.1
2014-Jul-17 05:33N 32°43' W 017°13'1 0.1
2014-Jul-16 20:05N 32°43' W 017°14'1 1.7
2014-Jul-16 19:33N 32°42' W 017°14'1 1.4
2014-Jul-16 18:33N 32°41' W 017°13'1 0.9
2014-Jul-16 17:34N 32°40' W 017°13'2 1.9
2014-Jul-16 16:33N 32°39' W 017°14'3 2.6
2014-Jul-16 15:33N 32°42' W 017°15'0 0.4
2014-Jul-16 14:33N 32°42' W 017°15'  
2014-Jul-14 06:07N 32°18' W 016°36'1 1.9
2014-Jul-14 05:32N 32°19' W 016°36'12 8.6
2014-Jul-14 04:07N 32°31' W 016°32'1 1.5
2014-Jul-14 03:33N 32°32' W 016°32'0 0.0
2014-Jul-14 02:33N 32°32' W 016°32'0 0.0
2014-Jul-14 01:31N 32°32' W 016°32'0 0.0
2014-Jul-14 00:32N 32°32' W 016°32'0 0.0
2014-Jul-13 23:33N 32°32' W 016°32'0 0.1
2014-Jul-13 22:28N 32°32' W 016°32'0 0.1
2014-Jul-13 21:31N 32°32' W 016°32'0 0.0
2014-Jul-13 20:33N 32°32' W 016°32'3 3.2
2014-Jul-13 19:33N 32°29' W 016°34'6 5.7
2014-Jul-13 18:33N 32°24' W 016°37'3 3.1
2014-Jul-13 17:31N 32°21' W 016°38'2 2.5
2014-Jul-13 16:31N 32°19' W 016°39'1 1.4
2014-Jul-13 15:31N 32°18' W 016°38'1 0.4
2014-Jul-13 14:16N 32°19' W 016°37'2 3.0
2014-Jul-13 13:33N 32°21' W 016°37'4 3.1
2014-Jul-13 12:12N 32°17' W 016°36'4 5.4
2014-Jul-13 11:32N 32°20' W 016°37'5 4.8
2014-Jul-13 10:32N 32°17' W 016°33'3 3.1
2014-Jul-13 09:33N 32°17' W 016°36'1 0.2
2014-Jul-13 06:22N 32°17' W 016°36'6 1.4
2014-Jul-13 02:20N 32°22' W 016°34'7 8.1
2014-Jul-13 01:28N 32°29' W 016°33'3 3.0
2014-Jul-13 00:33N 32°32' W 016°32'0 0.0
2014-Jul-12 23:16N 32°32' W 016°32'0 0.0
2014-Jul-12 22:30N 32°32' W 016°32'3 2.6
2014-Jul-12 21:26N 32°29' W 016°32'8 8.6
2014-Jul-12 20:31N 32°22' W 016°35'5 5.3
2014-Jul-12 19:33N 32°18' W 016°40'5 4.8
2014-Jul-12 18:31N 32°13' W 016°37'2 1.5
2014-Jul-12 17:24N 32°15' W 016°37'3 2.7
2014-Jul-12 16:29N 32°17' W 016°38'2 0.6
2014-Jul-12 13:32N 32°17' W 016°36'0 0.1
2014-Jul-12 11:11N 32°17' W 016°36'3 4.1
2014-Jul-12 10:30N 32°20' W 016°37'4 3.5
2014-Jul-12 09:17N 32°15' W 016°38'5 5.7
2014-Jul-12 08:26N 32°20' W 016°36'4 3.2
2014-Jul-12 07:10N 32°17' W 016°33'1 0.9
2014-Jul-12 06:18N 32°18' W 016°33'2 2.0
2014-Jul-12 05:27N 32°19' W 016°33'7 8.2
2014-Jul-12 04:33N 32°27' W 016°33'5 5.1
2014-Jul-12 03:33N 32°32' W 016°32'0 0.0
2014-Jul-12 02:33N 32°32' W 016°32'0 0.0
2014-Jul-12 01:33N 32°32' W 016°32'0 0.0
2014-Jul-12 00:33N 32°32' W 016°32'0 0.0
2014-Jul-11 23:11N 32°32' W 016°32'0 0.2
2014-Jul-11 22:33N 32°32' W 016°32'0 0.1
2014-Jul-11 21:15N 32°32' W 016°32'1 1.7
2014-Jul-11 20:33N 32°31' W 016°32'9 8.6
2014-Jul-11 19:31N 32°22' W 016°33'2 2.0
2014-Jul-11 18:33N 32°22' W 016°35'8 8.4
2014-Jul-11 17:33N 32°30' W 016°37'13 0.6
2014-Jul-10 21:07N 32°38' W 016°50'5 9.2
2014-Jul-10 20:33N 32°38' W 016°56'10 9.5
2014-Jul-10 19:33N 32°40' W 017°07'9 9.2
2014-Jul-10 18:33N 32°44' W 017°17'329 8.6
2014-Jul-09 04:18N 35°31' W 022°59'7 8.2
2014-Jul-09 03:30N 35°33' W 023°07'10 8.6
2014-Jul-09 02:20N 35°38' W 023°18'8 8.5
2014-Jul-09 01:22N 35°41' W 023°27'7 8.3
2014-Jul-09 00:32N 35°44' W 023°35'8 8.5
2014-Jul-08 23:33N 35°49' W 023°43'10 8.7
2014-Jul-08 22:25N 35°54' W 023°54'8 9.0
2014-Jul-08 21:30N 35°58' W 024°02'9 9.2
2014-Jul-08 20:29N 36°03' W 024°12'9 9.5
2014-Jul-08 19:34N 36°08' W 024°22'10 9.5
2014-Jul-08 18:33N 36°12' W 024°32'9 8.9
2014-Jul-08 17:33N 36°16' W 024°42'  

Dump ship's entire track history